sensor_id;sensor_type;location;lat;lon;timestamp;P1;durP1;ratioP1;P2;durP2;ratioP2
12725;SDS011;6427;49.754;6.106;2022-10-31T00:00:24;19.67;;;8.73;;
12725;SDS011;6427;49.754;6.106;2022-10-31T00:02:52;22.77;;;9.03;;
12725;SDS011;6427;49.754;6.106;2022-10-31T00:05:20;27.03;;;10.47;;
12725;SDS011;6427;49.754;6.106;2022-10-31T00:07:51;31.03;;;10.57;;
12725;SDS011;6427;49.754;6.106;2022-10-31T00:10:15;19.37;;;8.17;;
12725;SDS011;6427;49.754;6.106;2022-10-31T00:12:43;18.17;;;6.50;;
12725;SDS011;6427;49.754;6.106;2022-10-31T00:15:11;15.20;;;6.43;;
12725;SDS011;6427;49.754;6.106;2022-10-31T00:17:38;11.40;;;5.53;;
12725;SDS011;6427;49.754;6.106;2022-10-31T00:20:06;11.20;;;5.43;;
12725;SDS011;6427;49.754;6.106;2022-10-31T00:22:33;19.20;;;8.07;;
12725;SDS011;6427;49.754;6.106;2022-10-31T00:25:01;13.13;;;7.23;;
12725;SDS011;6427;49.754;6.106;2022-10-31T00:27:28;10.37;;;6.03;;
12725;SDS011;6427;49.754;6.106;2022-10-31T00:29:56;27.27;;;12.03;;
12725;SDS011;6427;49.754;6.106;2022-10-31T00:32:24;22.33;;;9.73;;
12725;SDS011;6427;49.754;6.106;2022-10-31T00:34:51;19.40;;;9.10;;
12725;SDS011;6427;49.754;6.106;2022-10-31T00:37:19;19.90;;;8.60;;
12725;SDS011;6427;49.754;6.106;2022-10-31T00:39:46;18.40;;;8.40;;
12725;SDS011;6427;49.754;6.106;2022-10-31T00:42:15;23.33;;;9.63;;
12725;SDS011;6427;49.754;6.106;2022-10-31T00:44:42;22.17;;;9.60;;
12725;SDS011;6427;49.754;6.106;2022-10-31T00:47:10;17.30;;;8.33;;
12725;SDS011;6427;49.754;6.106;2022-10-31T00:49:37;12.83;;;5.90;;
12725;SDS011;6427;49.754;6.106;2022-10-31T00:52:05;12.13;;;6.20;;
12725;SDS011;6427;49.754;6.106;2022-10-31T00:54:32;11.67;;;6.43;;
12725;SDS011;6427;49.754;6.106;2022-10-31T00:57:01;8.43;;;6.33;;
12725;SDS011;6427;49.754;6.106;2022-10-31T00:59:28;16.97;;;7.33;;
12725;SDS011;6427;49.754;6.106;2022-10-31T01:01:56;10.07;;;6.40;;
12725;SDS011;6427;49.754;6.106;2022-10-31T01:04:23;12.60;;;6.10;;
12725;SDS011;6427;49.754;6.106;2022-10-31T01:06:57;14.53;;;6.80;;
12725;SDS011;6427;49.754;6.106;2022-10-31T04:23:50;12.95;;;8.13;;
12725;SDS011;6427;49.754;6.106;2022-10-31T04:26:18;9.90;;;6.37;;
12725;SDS011;6427;49.754;6.106;2022-10-31T04:28:46;14.70;;;6.87;;
12725;SDS011;6427;49.754;6.106;2022-10-31T04:31:14;16.70;;;7.27;;
12725;SDS011;6427;49.754;6.106;2022-10-31T04:33:42;12.70;;;6.57;;
12725;SDS011;6427;49.754;6.106;2022-10-31T04:36:09;11.60;;;6.40;;
12725;SDS011;6427;49.754;6.106;2022-10-31T04:38:37;12.80;;;6.93;;
12725;SDS011;6427;49.754;6.106;2022-10-31T04:41:04;11.80;;;6.57;;
12725;SDS011;6427;49.754;6.106;2022-10-31T04:43:32;14.47;;;6.40;;
12725;SDS011;6427;49.754;6.106;2022-10-31T04:45:59;12.37;;;6.67;;
12725;SDS011;6427;49.754;6.106;2022-10-31T04:48:27;15.85;;;7.50;;
12725;SDS011;6427;49.754;6.106;2022-10-31T04:50:59;15.27;;;6.53;;
12725;SDS011;6427;49.754;6.106;2022-10-31T04:53:29;18.20;;;5.93;;
12725;SDS011;6427;49.754;6.106;2022-10-31T04:55:57;8.53;;;6.00;;
12725;SDS011;6427;49.754;6.106;2022-10-31T04:58:24;11.80;;;6.60;;
12725;SDS011;6427;49.754;6.106;2022-10-31T05:00:53;12.87;;;5.60;;
12725;SDS011;6427;49.754;6.106;2022-10-31T05:03:21;13.10;;;5.93;;
12725;SDS011;6427;49.754;6.106;2022-10-31T05:05:49;10.43;;;6.30;;
12725;SDS011;6427;49.754;6.106;2022-10-31T05:08:17;11.13;;;5.83;;
12725;SDS011;6427;49.754;6.106;2022-10-31T05:10:44;11.80;;;6.37;;
12725;SDS011;6427;49.754;6.106;2022-10-31T05:13:13;10.37;;;6.03;;
12725;SDS011;6427;49.754;6.106;2022-10-31T05:15:40;12.87;;;7.13;;
12725;SDS011;6427;49.754;6.106;2022-10-31T05:18:08;14.70;;;7.70;;
12725;SDS011;6427;49.754;6.106;2022-10-31T05:20:35;15.67;;;6.70;;
12725;SDS011;6427;49.754;6.106;2022-10-31T05:23:03;16.60;;;8.20;;
12725;SDS011;6427;49.754;6.106;2022-10-31T05:25:31;13.97;;;7.13;;
12725;SDS011;6427;49.754;6.106;2022-10-31T05:27:58;19.00;;;7.90;;
12725;SDS011;6427;49.754;6.106;2022-10-31T05:30:27;11.30;;;6.80;;
12725;SDS011;6427;49.754;6.106;2022-10-31T05:32:55;17.87;;;6.60;;
12725;SDS011;6427;49.754;6.106;2022-10-31T05:35:26;12.17;;;6.47;;
12725;SDS011;6427;49.754;6.106;2022-10-31T05:37:51;14.63;;;5.67;;
12725;SDS011;6427;49.754;6.106;2022-10-31T05:40:19;12.53;;;5.60;;
12725;SDS011;6427;49.754;6.106;2022-10-31T05:42:47;12.37;;;6.10;;
12725;SDS011;6427;49.754;6.106;2022-10-31T05:45:15;11.93;;;6.20;;
12725;SDS011;6427;49.754;6.106;2022-10-31T05:47:49;16.17;;;6.13;;
12725;SDS011;6427;49.754;6.106;2022-10-31T05:50:10;14.97;;;6.23;;
12725;SDS011;6427;49.754;6.106;2022-10-31T05:52:38;10.87;;;5.97;;
12725;SDS011;6427;49.754;6.106;2022-10-31T05:55:07;13.97;;;6.43;;
12725;SDS011;6427;49.754;6.106;2022-10-31T05:57:35;14.37;;;6.07;;
12725;SDS011;6427;49.754;6.106;2022-10-31T06:00:03;13.83;;;6.17;;
12725;SDS011;6427;49.754;6.106;2022-10-31T06:02:30;15.33;;;6.80;;
12725;SDS011;6427;49.754;6.106;2022-10-31T06:04:58;11.80;;;5.57;;
12725;SDS011;6427;49.754;6.106;2022-10-31T06:07:25;13.47;;;6.43;;
12725;SDS011;6427;49.754;6.106;2022-10-31T06:09:53;8.50;;;5.90;;
12725;SDS011;6427;49.754;6.106;2022-10-31T06:12:21;13.77;;;7.65;;
12725;SDS011;6427;49.754;6.106;2022-10-31T06:14:49;11.90;;;6.70;;
12725;SDS011;6427;49.754;6.106;2022-10-31T06:17:17;13.93;;;6.27;;
12725;SDS011;6427;49.754;6.106;2022-10-31T06:19:45;15.60;;;6.10;;
12725;SDS011;6427;49.754;6.106;2022-10-31T06:22:12;16.43;;;6.10;;
12725;SDS011;6427;49.754;6.106;2022-10-31T06:24:40;15.67;;;6.23;;
12725;SDS011;6427;49.754;6.106;2022-10-31T06:27:07;11.57;;;5.73;;
12725;SDS011;6427;49.754;6.106;2022-10-31T06:29:35;14.33;;;6.60;;
12725;SDS011;6427;49.754;6.106;2022-10-31T06:32:02;19.27;;;6.63;;
12725;SDS011;6427;49.754;6.106;2022-10-31T06:34:30;10.07;;;5.60;;
12725;SDS011;6427;49.754;6.106;2022-10-31T06:36:58;10.87;;;6.20;;
12725;SDS011;6427;49.754;6.106;2022-10-31T06:39:25;10.90;;;5.67;;
12725;SDS011;6427;49.754;6.106;2022-10-31T06:41:53;15.25;;;8.05;;
12725;SDS011;6427;49.754;6.106;2022-10-31T06:44:20;9.30;;;6.10;;
12725;SDS011;6427;49.754;6.106;2022-10-31T06:46:48;11.67;;;6.03;;
12725;SDS011;6427;49.754;6.106;2022-10-31T06:49:15;13.90;;;7.87;;
12725;SDS011;6427;49.754;6.106;2022-10-31T06:51:43;15.60;;;6.83;;
12725;SDS011;6427;49.754;6.106;2022-10-31T06:54:10;16.63;;;6.97;;
12725;SDS011;6427;49.754;6.106;2022-10-31T06:56:38;15.52;;;8.18;;
12725;SDS011;6427;49.754;6.106;2022-10-31T06:59:06;13.50;;;7.03;;
12725;SDS011;6427;49.754;6.106;2022-10-31T07:01:34;12.07;;;6.47;;
12725;SDS011;6427;49.754;6.106;2022-10-31T07:04:01;14.45;;;8.48;;
12725;SDS011;6427;49.754;6.106;2022-10-31T07:06:29;14.10;;;8.52;;
12725;SDS011;6427;49.754;6.106;2022-10-31T07:08:56;13.87;;;6.50;;
12725;SDS011;6427;49.754;6.106;2022-10-31T07:11:24;15.47;;;7.07;;
12725;SDS011;6427;49.754;6.106;2022-10-31T07:13:52;14.30;;;7.32;;
12725;SDS011;6427;49.754;6.106;2022-10-31T07:16:19;36.53;;;8.83;;
12725;SDS011;6427;49.754;6.106;2022-10-31T07:18:47;54.20;;;11.03;;
12725;SDS011;6427;49.754;6.106;2022-10-31T07:21:14;38.83;;;8.67;;
12725;SDS011;6427;49.754;6.106;2022-10-31T07:23:42;23.10;;;7.60;;
12725;SDS011;6427;49.754;6.106;2022-10-31T07:26:10;17.63;;;6.73;;
12725;SDS011;6427;49.754;6.106;2022-10-31T07:28:38;11.90;;;6.37;;
12725;SDS011;6427;49.754;6.106;2022-10-31T07:31:06;15.03;;;6.77;;
12725;SDS011;6427;49.754;6.106;2022-10-31T07:33:33;13.80;;;6.90;;
12725;SDS011;6427;49.754;6.106;2022-10-31T07:36:02;18.47;;;6.97;;
12725;SDS011;6427;49.754;6.106;2022-10-31T07:38:30;11.10;;;6.80;;
12725;SDS011;6427;49.754;6.106;2022-10-31T07:40:58;11.17;;;6.63;;
12725;SDS011;6427;49.754;6.106;2022-10-31T07:43:26;10.93;;;7.07;;
12725;SDS011;6427;49.754;6.106;2022-10-31T07:45:54;14.50;;;6.83;;
12725;SDS011;6427;49.754;6.106;2022-10-31T07:48:21;14.73;;;7.63;;
12725;SDS011;6427;49.754;6.106;2022-10-31T07:50:49;14.90;;;6.90;;
12725;SDS011;6427;49.754;6.106;2022-10-31T07:53:17;15.70;;;7.13;;
12725;SDS011;6427;49.754;6.106;2022-10-31T07:55:44;21.77;;;8.82;;
12725;SDS011;6427;49.754;6.106;2022-10-31T07:58:15;21.87;;;7.33;;
12725;SDS011;6427;49.754;6.106;2022-10-31T08:00:43;13.00;;;6.57;;
12725;SDS011;6427;49.754;6.106;2022-10-31T08:03:11;15.67;;;7.00;;
12725;SDS011;6427;49.754;6.106;2022-10-31T08:05:40;14.85;;;8.32;;
12725;SDS011;6427;49.754;6.106;2022-10-31T08:08:08;13.03;;;7.10;;
12725;SDS011;6427;49.754;6.106;2022-10-31T08:10:35;13.47;;;7.00;;
12725;SDS011;6427;49.754;6.106;2022-10-31T08:13:07;12.73;;;6.80;;
12725;SDS011;6427;49.754;6.106;2022-10-31T08:15:34;17.10;;;6.70;;
12725;SDS011;6427;49.754;6.106;2022-10-31T08:18:02;15.97;;;7.17;;
12725;SDS011;6427;49.754;6.106;2022-10-31T08:20:29;16.17;;;6.33;;
12725;SDS011;6427;49.754;6.106;2022-10-31T08:23:01;14.87;;;6.77;;
12725;SDS011;6427;49.754;6.106;2022-10-31T08:25:29;16.30;;;6.77;;
12725;SDS011;6427;49.754;6.106;2022-10-31T08:27:56;15.40;;;8.57;;
12725;SDS011;6427;49.754;6.106;2022-10-31T08:30:25;11.80;;;7.67;;
12725;SDS011;6427;49.754;6.106;2022-10-31T08:32:58;11.43;;;7.23;;
12725;SDS011;6427;49.754;6.106;2022-10-31T08:35:28;12.67;;;7.03;;
12725;SDS011;6427;49.754;6.106;2022-10-31T08:37:56;16.30;;;8.10;;
12725;SDS011;6427;49.754;6.106;2022-10-31T08:40:25;16.07;;;7.07;;
12725;SDS011;6427;49.754;6.106;2022-10-31T08:42:58;15.67;;;7.13;;
12725;SDS011;6427;49.754;6.106;2022-10-31T08:45:26;15.73;;;7.63;;
12725;SDS011;6427;49.754;6.106;2022-10-31T08:47:56;11.37;;;6.93;;
12725;SDS011;6427;49.754;6.106;2022-10-31T08:50:21;16.90;;;7.30;;
12725;SDS011;6427;49.754;6.106;2022-10-31T08:52:49;10.57;;;6.00;;
12725;SDS011;6427;49.754;6.106;2022-10-31T08:55:16;13.43;;;7.50;;
12725;SDS011;6427;49.754;6.106;2022-10-31T08:57:44;10.27;;;6.77;;
12725;SDS011;6427;49.754;6.106;2022-10-31T09:02:41;16.93;;;7.53;;
12725;SDS011;6427;49.754;6.106;2022-10-31T09:05:08;11.70;;;6.90;;
12725;SDS011;6427;49.754;6.106;2022-10-31T09:07:36;11.88;;;7.60;;
12725;SDS011;6427;49.754;6.106;2022-10-31T09:10:04;10.70;;;6.80;;
12725;SDS011;6427;49.754;6.106;2022-10-31T09:12:32;12.57;;;7.23;;
12725;SDS011;6427;49.754;6.106;2022-10-31T09:14:59;14.90;;;7.63;;
12725;SDS011;6427;49.754;6.106;2022-10-31T09:17:28;13.87;;;6.97;;
12725;SDS011;6427;49.754;6.106;2022-10-31T09:19:55;13.03;;;6.50;;
12725;SDS011;6427;49.754;6.106;2022-10-31T09:22:23;12.50;;;6.73;;
12725;SDS011;6427;49.754;6.106;2022-10-31T09:24:50;11.87;;;6.57;;
12725;SDS011;6427;49.754;6.106;2022-10-31T09:27:18;15.20;;;6.43;;
12725;SDS011;6427;49.754;6.106;2022-10-31T09:29:46;11.47;;;7.07;;
12725;SDS011;6427;49.754;6.106;2022-10-31T09:32:13;16.10;;;7.03;;
12725;SDS011;6427;49.754;6.106;2022-10-31T09:34:41;14.30;;;7.10;;
12725;SDS011;6427;49.754;6.106;2022-10-31T09:37:09;12.53;;;6.27;;
12725;SDS011;6427;49.754;6.106;2022-10-31T09:39:37;11.80;;;6.40;;
12725;SDS011;6427;49.754;6.106;2022-10-31T09:44:59;14.57;;;7.77;;
12725;SDS011;6427;49.754;6.106;2022-10-31T09:47:39;13.60;;;6.70;;
12725;SDS011;6427;49.754;6.106;2022-10-31T09:50:22;10.43;;;6.10;;
12725;SDS011;6427;49.754;6.106;2022-10-31T09:53:00;11.77;;;6.90;;
12725;SDS011;6427;49.754;6.106;2022-10-31T09:55:41;13.77;;;6.47;;
12725;SDS011;6427;49.754;6.106;2022-10-31T09:58:13;12.83;;;6.60;;
12725;SDS011;6427;49.754;6.106;2022-10-31T10:00:42;8.30;;;6.23;;
12725;SDS011;6427;49.754;6.106;2022-10-31T10:03:29;13.97;;;6.07;;
12725;SDS011;6427;49.754;6.106;2022-10-31T10:06:04;13.63;;;6.33;;
12725;SDS011;6427;49.754;6.106;2022-10-31T10:08:41;11.27;;;5.87;;
12725;SDS011;6427;49.754;6.106;2022-10-31T10:14:07;15.33;;;7.53;;
12725;SDS011;6427;49.754;6.106;2022-10-31T10:19:33;10.10;;;6.20;;
12725;SDS011;6427;49.754;6.106;2022-10-31T10:27:31;12.10;;;6.40;;
12725;SDS011;6427;49.754;6.106;2022-10-31T10:29:58;16.63;;;6.40;;
12725;SDS011;6427;49.754;6.106;2022-10-31T10:32:31;14.93;;;6.40;;
12725;SDS011;6427;49.754;6.106;2022-10-31T10:34:59;12.63;;;6.33;;
12725;SDS011;6427;49.754;6.106;2022-10-31T10:37:38;15.20;;;6.47;;
12725;SDS011;6427;49.754;6.106;2022-10-31T10:40:20;12.63;;;5.93;;
12725;SDS011;6427;49.754;6.106;2022-10-31T10:42:56;10.07;;;5.97;;
12725;SDS011;6427;49.754;6.106;2022-10-31T10:45:48;12.70;;;6.27;;
12725;SDS011;6427;49.754;6.106;2022-10-31T10:48:42;13.93;;;7.27;;
12725;SDS011;6427;49.754;6.106;2022-10-31T10:51:12;14.77;;;6.50;;
12725;SDS011;6427;49.754;6.106;2022-10-31T10:53:45;15.20;;;7.40;;
12725;SDS011;6427;49.754;6.106;2022-10-31T10:58:38;13.32;;;6.55;;
12725;SDS011;6427;49.754;6.106;2022-10-31T11:01:10;10.53;;;5.67;;
12725;SDS011;6427;49.754;6.106;2022-10-31T11:03:37;11.43;;;5.87;;
12725;SDS011;6427;49.754;6.106;2022-10-31T11:06:04;13.00;;;6.53;;
12725;SDS011;6427;49.754;6.106;2022-10-31T11:08:36;10.30;;;6.03;;
12725;SDS011;6427;49.754;6.106;2022-10-31T11:13:42;9.63;;;6.20;;
12725;SDS011;6427;49.754;6.106;2022-10-31T11:16:10;10.93;;;6.40;;
12725;SDS011;6427;49.754;6.106;2022-10-31T11:18:39;13.83;;;6.37;;
12725;SDS011;6427;49.754;6.106;2022-10-31T11:21:17;10.67;;;6.00;;
12725;SDS011;6427;49.754;6.106;2022-10-31T11:23:34;15.80;;;6.50;;
12725;SDS011;6427;49.754;6.106;2022-10-31T11:26:02;11.27;;;6.17;;
12725;SDS011;6427;49.754;6.106;2022-10-31T11:28:29;10.20;;;5.63;;
12725;SDS011;6427;49.754;6.106;2022-10-31T11:30:57;12.57;;;6.50;;
12725;SDS011;6427;49.754;6.106;2022-10-31T11:33:37;12.10;;;5.90;;
12725;SDS011;6427;49.754;6.106;2022-10-31T11:36:23;11.87;;;6.03;;
12725;SDS011;6427;49.754;6.106;2022-10-31T11:38:50;13.93;;;5.93;;
12725;SDS011;6427;49.754;6.106;2022-10-31T11:41:17;14.00;;;6.37;;
12725;SDS011;6427;49.754;6.106;2022-10-31T11:44:04;11.83;;;6.40;;
12725;SDS011;6427;49.754;6.106;2022-10-31T11:46:26;15.07;;;6.30;;
12725;SDS011;6427;49.754;6.106;2022-10-31T11:48:52;15.03;;;6.90;;
12725;SDS011;6427;49.754;6.106;2022-10-31T11:51:20;15.87;;;6.50;;
12725;SDS011;6427;49.754;6.106;2022-10-31T11:53:50;10.90;;;6.63;;
12725;SDS011;6427;49.754;6.106;2022-10-31T11:56:18;12.18;;;6.87;;
12725;SDS011;6427;49.754;6.106;2022-10-31T11:58:55;15.00;;;6.33;;
12725;SDS011;6427;49.754;6.106;2022-10-31T12:01:23;14.40;;;6.27;;
12725;SDS011;6427;49.754;6.106;2022-10-31T12:06:45;11.73;;;5.90;;
12725;SDS011;6427;49.754;6.106;2022-10-31T12:09:21;10.57;;;5.57;;
12725;SDS011;6427;49.754;6.106;2022-10-31T12:14:30;14.53;;;6.53;;
12725;SDS011;6427;49.754;6.106;2022-10-31T12:39:02;9.83;;;5.93;;
12725;SDS011;6427;49.754;6.106;2022-10-31T12:44:12;14.00;;;5.00;;
12725;SDS011;6427;49.754;6.106;2022-10-31T12:47:00;9.00;;;4.43;;
12725;SDS011;6427;49.754;6.106;2022-10-31T12:49:42;10.25;;;4.90;;
12725;SDS011;6427;49.754;6.106;2022-10-31T12:52:19;8.97;;;4.37;;
12725;SDS011;6427;49.754;6.106;2022-10-31T12:54:52;11.70;;;4.00;;
12725;SDS011;6427;49.754;6.106;2022-10-31T12:57:42;13.03;;;4.87;;
12725;SDS011;6427;49.754;6.106;2022-10-31T13:00:17;10.93;;;4.63;;
12725;SDS011;6427;49.754;6.106;2022-10-31T13:02:51;10.87;;;4.80;;
12725;SDS011;6427;49.754;6.106;2022-10-31T13:05:19;10.60;;;4.80;;
12725;SDS011;6427;49.754;6.106;2022-10-31T13:08:05;8.50;;;4.10;;
12725;SDS011;6427;49.754;6.106;2022-10-31T13:10:31;9.53;;;3.70;;
12725;SDS011;6427;49.754;6.106;2022-10-31T13:13:06;12.37;;;4.33;;
12725;SDS011;6427;49.754;6.106;2022-10-31T13:15:33;5.30;;;3.43;;
12725;SDS011;6427;49.754;6.106;2022-10-31T13:18:04;9.13;;;4.30;;
12725;SDS011;6427;49.754;6.106;2022-10-31T13:20:30;9.37;;;3.93;;
12725;SDS011;6427;49.754;6.106;2022-10-31T13:25:46;11.33;;;4.00;;
12725;SDS011;6427;49.754;6.106;2022-10-31T13:31:03;10.67;;;3.87;;
12725;SDS011;6427;49.754;6.106;2022-10-31T13:33:34;7.63;;;3.40;;
12725;SDS011;6427;49.754;6.106;2022-10-31T13:39:00;11.60;;;3.70;;
12725;SDS011;6427;49.754;6.106;2022-10-31T13:41:48;8.00;;;3.60;;
12725;SDS011;6427;49.754;6.106;2022-10-31T13:44:22;8.47;;;3.77;;
12725;SDS011;6427;49.754;6.106;2022-10-31T13:46:52;13.53;;;3.77;;
12725;SDS011;6427;49.754;6.106;2022-10-31T13:51:50;9.40;;;3.50;;
12725;SDS011;6427;49.754;6.106;2022-10-31T13:54:21;11.43;;;3.65;;
12725;SDS011;6427;49.754;6.106;2022-10-31T13:56:51;8.70;;;3.40;;
12725;SDS011;6427;49.754;6.106;2022-10-31T13:59:25;12.93;;;3.77;;
12725;SDS011;6427;49.754;6.106;2022-10-31T14:01:55;9.18;;;3.87;;
12725;SDS011;6427;49.754;6.106;2022-10-31T14:04:25;9.27;;;3.20;;
12725;SDS011;6427;49.754;6.106;2022-10-31T14:07:05;7.73;;;2.77;;
12725;SDS011;6427;49.754;6.106;2022-10-31T14:12:33;9.87;;;3.13;;
12725;SDS011;6427;49.754;6.106;2022-10-31T14:15:14;8.63;;;3.20;;
12725;SDS011;6427;49.754;6.106;2022-10-31T14:17:54;9.03;;;3.37;;
12725;SDS011;6427;49.754;6.106;2022-10-31T14:20:34;8.97;;;3.40;;
12725;SDS011;6427;49.754;6.106;2022-10-31T14:25:39;10.70;;;3.20;;
12725;SDS011;6427;49.754;6.106;2022-10-31T14:28:20;8.33;;;2.90;;
12725;SDS011;6427;49.754;6.106;2022-10-31T14:30:53;9.50;;;2.80;;
12725;SDS011;6427;49.754;6.106;2022-10-31T14:33:22;9.38;;;3.20;;
12725;SDS011;6427;49.754;6.106;2022-10-31T14:43:57;6.97;;;2.73;;
12725;SDS011;6427;49.754;6.106;2022-10-31T14:46:42;10.27;;;3.30;;
12725;SDS011;6427;49.754;6.106;2022-10-31T14:49:27;10.43;;;2.90;;
12725;SDS011;6427;49.754;6.106;2022-10-31T14:51:53;10.93;;;3.50;;
12725;SDS011;6427;49.754;6.106;2022-10-31T14:54:28;7.90;;;3.10;;
12725;SDS011;6427;49.754;6.106;2022-10-31T14:57:47;5.30;;;2.83;;
12725;SDS011;6427;49.754;6.106;2022-10-31T14:59:35;7.75;;;3.22;;
12725;SDS011;6427;49.754;6.106;2022-10-31T15:02:08;5.90;;;2.70;;
12725;SDS011;6427;49.754;6.106;2022-10-31T15:04:30;7.33;;;3.27;;
12725;SDS011;6427;49.754;6.106;2022-10-31T15:07:08;8.73;;;3.33;;
12725;SDS011;6427;49.754;6.106;2022-10-31T15:09:34;5.73;;;3.10;;
12725;SDS011;6427;49.754;6.106;2022-10-31T15:12:16;6.20;;;2.90;;
12725;SDS011;6427;49.754;6.106;2022-10-31T15:14:30;9.27;;;2.77;;
12725;SDS011;6427;49.754;6.106;2022-10-31T15:16:57;7.13;;;2.93;;
12725;SDS011;6427;49.754;6.106;2022-10-31T15:19:25;10.17;;;3.00;;
12725;SDS011;6427;49.754;6.106;2022-10-31T15:21:55;12.43;;;4.37;;
12725;SDS011;6427;49.754;6.106;2022-10-31T15:24:27;14.30;;;3.40;;
12725;SDS011;6427;49.754;6.106;2022-10-31T15:26:53;9.88;;;3.60;;
12725;SDS011;6427;49.754;6.106;2022-10-31T15:29:21;6.03;;;3.80;;
12725;SDS011;6427;49.754;6.106;2022-10-31T15:31:51;11.00;;;4.00;;
12725;SDS011;6427;49.754;6.106;2022-10-31T15:34:20;11.63;;;3.80;;
12725;SDS011;6427;49.754;6.106;2022-10-31T15:36:47;9.65;;;3.47;;
12725;SDS011;6427;49.754;6.106;2022-10-31T15:39:15;7.80;;;3.30;;
12725;SDS011;6427;49.754;6.106;2022-10-31T15:41:47;9.10;;;3.40;;
12725;SDS011;6427;49.754;6.106;2022-10-31T15:44:26;13.73;;;3.40;;
12725;SDS011;6427;49.754;6.106;2022-10-31T15:47:04;10.90;;;3.47;;
12725;SDS011;6427;49.754;6.106;2022-10-31T15:49:39;15.40;;;4.10;;
12725;SDS011;6427;49.754;6.106;2022-10-31T15:52:13;33.90;;;11.50;;
12725;SDS011;6427;49.754;6.106;2022-10-31T15:54:44;25.50;;;5.40;;
12725;SDS011;6427;49.754;6.106;2022-10-31T15:57:11;17.10;;;7.13;;
12725;SDS011;6427;49.754;6.106;2022-10-31T15:59:38;25.17;;;6.40;;
12725;SDS011;6427;49.754;6.106;2022-10-31T16:02:09;16.77;;;5.63;;
12725;SDS011;6427;49.754;6.106;2022-10-31T16:04:36;10.00;;;4.50;;
12725;SDS011;6427;49.754;6.106;2022-10-31T16:07:13;10.63;;;4.10;;
12725;SDS011;6427;49.754;6.106;2022-10-31T16:09:57;9.17;;;4.10;;
12725;SDS011;6427;49.754;6.106;2022-10-31T16:12:24;13.17;;;4.23;;
12725;SDS011;6427;49.754;6.106;2022-10-31T16:14:51;128.90;;;13.93;;
12725;SDS011;6427;49.754;6.106;2022-10-31T16:17:20;33.77;;;6.13;;
12725;SDS011;6427;49.754;6.106;2022-10-31T16:19:57;12.03;;;4.80;;
12725;SDS011;6427;49.754;6.106;2022-10-31T16:22:29;14.73;;;5.40;;
12725;SDS011;6427;49.754;6.106;2022-10-31T16:25:01;11.60;;;5.40;;
12725;SDS011;6427;49.754;6.106;2022-10-31T16:27:30;13.20;;;4.63;;
12725;SDS011;6427;49.754;6.106;2022-10-31T16:29:57;13.90;;;5.10;;
12725;SDS011;6427;49.754;6.106;2022-10-31T16:32:27;9.17;;;4.27;;
12725;SDS011;6427;49.754;6.106;2022-10-31T16:35:16;14.20;;;5.43;;
12725;SDS011;6427;49.754;6.106;2022-10-31T16:37:37;14.00;;;4.27;;
12725;SDS011;6427;49.754;6.106;2022-10-31T16:40:04;14.77;;;4.53;;
12725;SDS011;6427;49.754;6.106;2022-10-31T16:42:32;9.33;;;4.30;;
12725;SDS011;6427;49.754;6.106;2022-10-31T16:44:59;11.17;;;4.50;;
12725;SDS011;6427;49.754;6.106;2022-10-31T16:47:28;12.63;;;4.10;;
12725;SDS011;6427;49.754;6.106;2022-10-31T16:49:55;12.70;;;4.70;;
12725;SDS011;6427;49.754;6.106;2022-10-31T16:52:23;12.67;;;4.90;;
12725;SDS011;6427;49.754;6.106;2022-10-31T16:54:51;13.50;;;4.77;;
12725;SDS011;6427;49.754;6.106;2022-10-31T16:57:20;9.90;;;4.10;;
12725;SDS011;6427;49.754;6.106;2022-10-31T16:59:47;12.00;;;5.10;;
12725;SDS011;6427;49.754;6.106;2022-10-31T17:02:15;8.50;;;4.90;;
12725;SDS011;6427;49.754;6.106;2022-10-31T17:04:42;11.40;;;5.70;;
12725;SDS011;6427;49.754;6.106;2022-10-31T17:07:09;8.50;;;4.20;;
12725;SDS011;6427;49.754;6.106;2022-10-31T17:09:37;8.93;;;3.97;;
12725;SDS011;6427;49.754;6.106;2022-10-31T17:12:05;9.97;;;5.00;;
12725;SDS011;6427;49.754;6.106;2022-10-31T17:14:32;11.30;;;5.50;;
12725;SDS011;6427;49.754;6.106;2022-10-31T17:16:59;12.17;;;5.40;;
12725;SDS011;6427;49.754;6.106;2022-10-31T17:19:27;13.83;;;4.10;;
12725;SDS011;6427;49.754;6.106;2022-10-31T17:21:54;11.63;;;5.35;;
12725;SDS011;6427;49.754;6.106;2022-10-31T17:24:23;9.80;;;4.33;;
12725;SDS011;6427;49.754;6.106;2022-10-31T17:26:50;11.80;;;5.03;;
12725;SDS011;6427;49.754;6.106;2022-10-31T17:29:19;11.87;;;4.73;;
12725;SDS011;6427;49.754;6.106;2022-10-31T17:31:46;9.63;;;4.40;;
12725;SDS011;6427;49.754;6.106;2022-10-31T17:34:14;9.77;;;4.50;;
12725;SDS011;6427;49.754;6.106;2022-10-31T17:36:41;10.77;;;5.07;;
12725;SDS011;6427;49.754;6.106;2022-10-31T17:39:09;14.23;;;5.03;;
12725;SDS011;6427;49.754;6.106;2022-10-31T17:41:37;7.13;;;4.50;;
12725;SDS011;6427;49.754;6.106;2022-10-31T17:44:05;9.60;;;4.60;;
12725;SDS011;6427;49.754;6.106;2022-10-31T17:46:33;13.17;;;4.40;;
12725;SDS011;6427;49.754;6.106;2022-10-31T17:49:00;11.90;;;4.83;;
12725;SDS011;6427;49.754;6.106;2022-10-31T17:51:28;9.57;;;4.67;;
12725;SDS011;6427;49.754;6.106;2022-10-31T17:53:56;8.60;;;4.17;;
12725;SDS011;6427;49.754;6.106;2022-10-31T17:56:24;9.77;;;4.73;;
12725;SDS011;6427;49.754;6.106;2022-10-31T17:58:51;8.87;;;4.13;;
12725;SDS011;6427;49.754;6.106;2022-10-31T18:01:19;9.30;;;4.72;;
12725;SDS011;6427;49.754;6.106;2022-10-31T18:03:47;8.07;;;4.70;;
12725;SDS011;6427;49.754;6.106;2022-10-31T18:06:14;12.80;;;4.93;;
12725;SDS011;6427;49.754;6.106;2022-10-31T18:08:42;11.00;;;5.20;;
12725;SDS011;6427;49.754;6.106;2022-10-31T18:11:12;14.40;;;4.63;;
12725;SDS011;6427;49.754;6.106;2022-10-31T18:13:38;14.47;;;5.13;;
12725;SDS011;6427;49.754;6.106;2022-10-31T18:16:07;13.10;;;5.40;;
12725;SDS011;6427;49.754;6.106;2022-10-31T18:18:36;11.30;;;5.30;;
12725;SDS011;6427;49.754;6.106;2022-10-31T18:21:04;15.02;;;5.62;;
12725;SDS011;6427;49.754;6.106;2022-10-31T18:23:32;16.07;;;6.67;;
12725;SDS011;6427;49.754;6.106;2022-10-31T18:26:00;11.33;;;6.03;;
12725;SDS011;6427;49.754;6.106;2022-10-31T18:28:28;15.43;;;5.63;;
12725;SDS011;6427;49.754;6.106;2022-10-31T18:30:58;15.17;;;5.80;;
12725;SDS011;6427;49.754;6.106;2022-10-31T18:33:29;13.03;;;7.00;;
12725;SDS011;6427;49.754;6.106;2022-10-31T18:36:02;15.65;;;7.60;;
12725;SDS011;6427;49.754;6.106;2022-10-31T18:38:24;13.43;;;6.07;;
12725;SDS011;6427;49.754;6.106;2022-10-31T18:40:51;14.10;;;5.80;;
12725;SDS011;6427;49.754;6.106;2022-10-31T18:43:20;15.37;;;6.33;;
12725;SDS011;6427;49.754;6.106;2022-10-31T18:45:48;14.23;;;5.40;;
12725;SDS011;6427;49.754;6.106;2022-10-31T18:48:15;13.03;;;5.57;;
12725;SDS011;6427;49.754;6.106;2022-10-31T18:50:44;10.70;;;5.13;;
12725;SDS011;6427;49.754;6.106;2022-10-31T18:53:11;13.40;;;5.97;;
12725;SDS011;6427;49.754;6.106;2022-10-31T18:55:40;11.37;;;5.80;;
12725;SDS011;6427;49.754;6.106;2022-10-31T18:58:07;13.87;;;5.47;;
12725;SDS011;6427;49.754;6.106;2022-10-31T19:00:35;11.33;;;6.37;;
12725;SDS011;6427;49.754;6.106;2022-10-31T19:03:03;13.37;;;5.87;;
12725;SDS011;6427;49.754;6.106;2022-10-31T19:05:30;12.97;;;6.23;;
12725;SDS011;6427;49.754;6.106;2022-10-31T19:07:58;11.50;;;6.10;;
12725;SDS011;6427;49.754;6.106;2022-10-31T19:10:26;13.53;;;5.67;;
12725;SDS011;6427;49.754;6.106;2022-10-31T19:12:54;11.07;;;5.60;;
12725;SDS011;6427;49.754;6.106;2022-10-31T19:15:22;12.43;;;6.50;;
12725;SDS011;6427;49.754;6.106;2022-10-31T19:17:49;13.07;;;5.30;;
12725;SDS011;6427;49.754;6.106;2022-10-31T19:20:17;10.60;;;6.00;;
12725;SDS011;6427;49.754;6.106;2022-10-31T19:22:44;12.30;;;6.43;;
12725;SDS011;6427;49.754;6.106;2022-10-31T19:25:12;16.73;;;6.07;;
12725;SDS011;6427;49.754;6.106;2022-10-31T19:27:39;15.70;;;5.80;;
12725;SDS011;6427;49.754;6.106;2022-10-31T19:30:07;15.53;;;5.10;;
12725;SDS011;6427;49.754;6.106;2022-10-31T19:32:35;11.70;;;5.63;;
12725;SDS011;6427;49.754;6.106;2022-10-31T19:35:03;12.57;;;5.27;;